sensor_id;sensor_type;location;lat;lon;timestamp;temperature;humidity
22430;DHT22;11382;48.086;11.632;2024-03-07T00:00:12;4.20;99.90
22430;DHT22;11382;48.086;11.632;2024-03-07T00:02:48;4.10;99.90
22430;DHT22;11382;48.086;11.632;2024-03-07T00:05:17;4.20;99.90
22430;DHT22;11382;48.086;11.632;2024-03-07T00:07:45;4.20;99.90
22430;DHT22;11382;48.086;11.632;2024-03-07T00:10:14;4.10;99.90
22430;DHT22;11382;48.086;11.632;2024-03-07T00:12:43;4.10;99.90
22430;DHT22;11382;48.086;11.632;2024-03-07T00:15:13;4.20;99.90
22430;DHT22;11382;48.086;11.632;2024-03-07T00:17:42;4.10;99.90
22430;DHT22;11382;48.086;11.632;2024-03-07T00:20:12;4.10;99.90
22430;DHT22;11382;48.086;11.632;2024-03-07T00:22:43;4.10;99.90
22430;DHT22;11382;48.086;11.632;2024-03-07T00:25:11;4.10;99.90
22430;DHT22;11382;48.086;11.632;2024-03-07T00:27:41;4.10;99.90
22430;DHT22;11382;48.086;11.632;2024-03-07T00:30:12;4.10;99.90
22430;DHT22;11382;48.086;11.632;2024-03-07T00:32:45;4.10;99.90
22430;DHT22;11382;48.086;11.632;2024-03-07T00:35:15;4.10;99.90
22430;DHT22;11382;48.086;11.632;2024-03-07T00:37:45;4.10;99.90
22430;DHT22;11382;48.086;11.632;2024-03-07T00:40:13;4.10;99.90
22430;DHT22;11382;48.086;11.632;2024-03-07T00:42:42;4.10;99.90
22430;DHT22;11382;48.086;11.632;2024-03-07T00:45:10;4.10;99.90
22430;DHT22;11382;48.086;11.632;2024-03-07T00:47:38;4.10;99.90
22430;DHT22;11382;48.086;11.632;2024-03-07T00:50:07;4.10;99.90
22430;DHT22;11382;48.086;11.632;2024-03-07T00:52:38;4.00;99.90
22430;DHT22;11382;48.086;11.632;2024-03-07T00:55:07;4.10;99.90
22430;DHT22;11382;48.086;11.632;2024-03-07T00:57:36;4.10;99.90
22430;DHT22;11382;48.086;11.632;2024-03-07T01:00:05;4.10;99.90
22430;DHT22;11382;48.086;11.632;2024-03-07T01:02:38;4.10;99.90
22430;DHT22;11382;48.086;11.632;2024-03-07T01:05:10;4.10;99.90
22430;DHT22;11382;48.086;11.632;2024-03-07T01:07:41;4.00;99.90
22430;DHT22;11382;48.086;11.632;2024-03-07T01:10:11;4.00;99.90
22430;DHT22;11382;48.086;11.632;2024-03-07T01:12:40;4.10;99.90
22430;DHT22;11382;48.086;11.632;2024-03-07T01:15:10;4.10;99.90
22430;DHT22;11382;48.086;11.632;2024-03-07T01:17:39;4.10;99.90
22430;DHT22;11382;48.086;11.632;2024-03-07T01:20:08;4.00;99.90
22430;DHT22;11382;48.086;11.632;2024-03-07T01:22:38;4.10;99.90
22430;DHT22;11382;48.086;11.632;2024-03-07T01:25:08;4.10;99.90
22430;DHT22;11382;48.086;11.632;2024-03-07T01:27:36;4.10;99.90
22430;DHT22;11382;48.086;11.632;2024-03-07T01:30:05;4.20;99.90
22430;DHT22;11382;48.086;11.632;2024-03-07T01:32:34;4.20;99.90
22430;DHT22;11382;48.086;11.632;2024-03-07T01:35:03;4.20;99.90
22430;DHT22;11382;48.086;11.632;2024-03-07T01:37:36;4.20;99.90
22430;DHT22;11382;48.086;11.632;2024-03-07T01:40:04;4.20;99.90
22430;DHT22;11382;48.086;11.632;2024-03-07T01:42:34;4.20;99.90
22430;DHT22;11382;48.086;11.632;2024-03-07T01:45:03;4.20;99.90
22430;DHT22;11382;48.086;11.632;2024-03-07T01:47:31;4.20;99.90
22430;DHT22;11382;48.086;11.632;2024-03-07T01:49:59;4.20;99.90
22430;DHT22;11382;48.086;11.632;2024-03-07T01:52:28;4.20;99.90
22430;DHT22;11382;48.086;11.632;2024-03-07T01:54:56;4.20;99.90
22430;DHT22;11382;48.086;11.632;2024-03-07T01:57:25;4.20;99.90
22430;DHT22;11382;48.086;11.632;2024-03-07T01:59:57;4.20;99.90
22430;DHT22;11382;48.086;11.632;2024-03-07T02:02:25;4.20;99.90
22430;DHT22;11382;48.086;11.632;2024-03-07T02:04:54;4.20;99.90
22430;DHT22;11382;48.086;11.632;2024-03-07T02:07:22;4.20;99.90
22430;DHT22;11382;48.086;11.632;2024-03-07T02:09:50;4.30;99.90
22430;DHT22;11382;48.086;11.632;2024-03-07T02:12:18;4.30;99.90
22430;DHT22;11382;48.086;11.632;2024-03-07T02:14:46;4.30;99.90
22430;DHT22;11382;48.086;11.632;2024-03-07T02:17:16;4.40;99.90
22430;DHT22;11382;48.086;11.632;2024-03-07T02:19:45;4.30;99.90
22430;DHT22;11382;48.086;11.632;2024-03-07T02:22:14;4.30;99.90
22430;DHT22;11382;48.086;11.632;2024-03-07T02:24:42;4.30;99.90
22430;DHT22;11382;48.086;11.632;2024-03-07T02:27:12;4.30;99.90
22430;DHT22;11382;48.086;11.632;2024-03-07T02:29:41;4.30;99.90
22430;DHT22;11382;48.086;11.632;2024-03-07T02:32:09;4.30;99.90
22430;DHT22;11382;48.086;11.632;2024-03-07T02:34:38;4.40;99.90
22430;DHT22;11382;48.086;11.632;2024-03-07T02:37:06;4.40;99.90
22430;DHT22;11382;48.086;11.632;2024-03-07T02:39:37;4.40;99.90
22430;DHT22;11382;48.086;11.632;2024-03-07T02:42:05;4.40;99.90
22430;DHT22;11382;48.086;11.632;2024-03-07T02:44:33;4.40;99.90
22430;DHT22;11382;48.086;11.632;2024-03-07T02:47:01;4.40;99.90
22430;DHT22;11382;48.086;11.632;2024-03-07T02:49:30;4.40;99.90
22430;DHT22;11382;48.086;11.632;2024-03-07T02:51:58;4.40;99.90
22430;DHT22;11382;48.086;11.632;2024-03-07T02:54:27;4.40;99.90
22430;DHT22;11382;48.086;11.632;2024-03-07T02:56:56;4.40;99.90
22430;DHT22;11382;48.086;11.632;2024-03-07T02:59:24;4.40;99.90
22430;DHT22;11382;48.086;11.632;2024-03-07T03:01:52;4.40;99.90
22430;DHT22;11382;48.086;11.632;2024-03-07T03:04:21;4.40;99.90
22430;DHT22;11382;48.086;11.632;2024-03-07T03:06:49;4.40;99.90
22430;DHT22;11382;48.086;11.632;2024-03-07T03:09:17;4.40;99.90
22430;DHT22;11382;48.086;11.632;2024-03-07T03:11:45;4.50;99.90
22430;DHT22;11382;48.086;11.632;2024-03-07T03:14:15;4.30;99.90
22430;DHT22;11382;48.086;11.632;2024-03-07T03:16:43;4.30;99.90
22430;DHT22;11382;48.086;11.632;2024-03-07T03:19:14;4.30;99.90
22430;DHT22;11382;48.086;11.632;2024-03-07T03:21:43;4.30;99.90
22430;DHT22;11382;48.086;11.632;2024-03-07T03:24:11;4.30;99.90
22430;DHT22;11382;48.086;11.632;2024-03-07T03:26:39;4.20;99.90
22430;DHT22;11382;48.086;11.632;2024-03-07T03:29:10;4.10;99.90
22430;DHT22;11382;48.086;11.632;2024-03-07T03:31:42;4.10;99.90
22430;DHT22;11382;48.086;11.632;2024-03-07T03:34:10;4.20;99.90
22430;DHT22;11382;48.086;11.632;2024-03-07T03:36:38;4.30;99.90
22430;DHT22;11382;48.086;11.632;2024-03-07T03:39:06;4.30;99.90
22430;DHT22;11382;48.086;11.632;2024-03-07T03:41:37;4.30;99.90
22430;DHT22;11382;48.086;11.632;2024-03-07T03:44:05;4.30;99.90
22430;DHT22;11382;48.086;11.632;2024-03-07T03:46:34;4.30;99.90
22430;DHT22;11382;48.086;11.632;2024-03-07T03:49:05;4.30;99.90
22430;DHT22;11382;48.086;11.632;2024-03-07T03:51:33;4.30;99.90
22430;DHT22;11382;48.086;11.632;2024-03-07T03:54:01;4.30;99.90
22430;DHT22;11382;48.086;11.632;2024-03-07T03:56:29;4.40;99.90
22430;DHT22;11382;48.086;11.632;2024-03-07T03:58:59;4.50;99.90
22430;DHT22;11382;48.086;11.632;2024-03-07T04:01:27;4.50;99.90
22430;DHT22;11382;48.086;11.632;2024-03-07T04:03:55;4.50;99.90
22430;DHT22;11382;48.086;11.632;2024-03-07T04:06:24;4.60;99.90
22430;DHT22;11382;48.086;11.632;2024-03-07T04:08:52;4.50;99.90
22430;DHT22;11382;48.086;11.632;2024-03-07T04:11:22;4.50;99.90
22430;DHT22;11382;48.086;11.632;2024-03-07T04:13:50;4.40;99.90
22430;DHT22;11382;48.086;11.632;2024-03-07T04:16:18;4.40;99.90
22430;DHT22;11382;48.086;11.632;2024-03-07T04:18:46;4.40;99.90
22430;DHT22;11382;48.086;11.632;2024-03-07T04:21:14;4.30;99.90
22430;DHT22;11382;48.086;11.632;2024-03-07T04:23:43;4.30;99.90
22430;DHT22;11382;48.086;11.632;2024-03-07T04:26:12;4.40;99.90
22430;DHT22;11382;48.086;11.632;2024-03-07T04:28:41;4.30;99.90
22430;DHT22;11382;48.086;11.632;2024-03-07T04:31:09;4.30;99.90
22430;DHT22;11382;48.086;11.632;2024-03-07T04:33:37;4.40;99.90
22430;DHT22;11382;48.086;11.632;2024-03-07T04:36:05;4.30;99.90
22430;DHT22;11382;48.086;11.632;2024-03-07T04:38:35;4.20;99.90
22430;DHT22;11382;48.086;11.632;2024-03-07T04:41:05;4.40;99.90
22430;DHT22;11382;48.086;11.632;2024-03-07T04:43:33;4.40;99.90
22430;DHT22;11382;48.086;11.632;2024-03-07T04:46:01;4.30;99.90
22430;DHT22;11382;48.086;11.632;2024-03-07T04:48:29;4.30;99.90
22430;DHT22;11382;48.086;11.632;2024-03-07T04:50:57;4.30;99.90
22430;DHT22;11382;48.086;11.632;2024-03-07T04:53:25;4.20;99.90
22430;DHT22;11382;48.086;11.632;2024-03-07T04:55:53;4.20;99.90
22430;DHT22;11382;48.086;11.632;2024-03-07T04:58:22;4.10;99.90
22430;DHT22;11382;48.086;11.632;2024-03-07T05:00:51;4.10;99.90
22430;DHT22;11382;48.086;11.632;2024-03-07T05:03:19;4.10;99.90
22430;DHT22;11382;48.086;11.632;2024-03-07T05:05:48;4.10;99.90
22430;DHT22;11382;48.086;11.632;2024-03-07T05:08:16;4.20;99.90
22430;DHT22;11382;48.086;11.632;2024-03-07T05:10:44;4.20;99.90
22430;DHT22;11382;48.086;11.632;2024-03-07T05:13:12;4.30;99.90
22430;DHT22;11382;48.086;11.632;2024-03-07T05:15:41;4.40;99.90
22430;DHT22;11382;48.086;11.632;2024-03-07T05:18:09;4.40;99.90
22430;DHT22;11382;48.086;11.632;2024-03-07T05:20:39;4.40;99.90
22430;DHT22;11382;48.086;11.632;2024-03-07T05:23:07;4.40;99.90
22430;DHT22;11382;48.086;11.632;2024-03-07T05:25:38;4.40;99.90
22430;DHT22;11382;48.086;11.632;2024-03-07T05:28:07;4.40;99.90
22430;DHT22;11382;48.086;11.632;2024-03-07T05:30:35;4.40;99.90
22430;DHT22;11382;48.086;11.632;2024-03-07T05:33:05;4.30;99.90
22430;DHT22;11382;48.086;11.632;2024-03-07T05:35:34;4.30;99.90
22430;DHT22;11382;48.086;11.632;2024-03-07T05:38:02;4.30;99.90
22430;DHT22;11382;48.086;11.632;2024-03-07T05:40:31;4.40;99.90
22430;DHT22;11382;48.086;11.632;2024-03-07T05:43:00;4.40;99.90
22430;DHT22;11382;48.086;11.632;2024-03-07T05:45:28;4.30;99.90
22430;DHT22;11382;48.086;11.632;2024-03-07T05:47:56;4.30;99.90
22430;DHT22;11382;48.086;11.632;2024-03-07T05:50:26;4.30;99.90
22430;DHT22;11382;48.086;11.632;2024-03-07T05:52:54;4.20;99.90
22430;DHT22;11382;48.086;11.632;2024-03-07T05:55:22;4.30;99.90
22430;DHT22;11382;48.086;11.632;2024-03-07T05:57:50;4.30;99.90
22430;DHT22;11382;48.086;11.632;2024-03-07T06:00:19;4.20;99.90
22430;DHT22;11382;48.086;11.632;2024-03-07T06:02:55;4.10;99.90
22430;DHT22;11382;48.086;11.632;2024-03-07T06:05:23;4.00;99.90
22430;DHT22;11382;48.086;11.632;2024-03-07T06:07:54;4.00;99.90
22430;DHT22;11382;48.086;11.632;2024-03-07T06:10:23;4.00;99.90
22430;DHT22;11382;48.086;11.632;2024-03-07T06:12:52;4.00;99.90
22430;DHT22;11382;48.086;11.632;2024-03-07T06:15:23;3.90;99.90
22430;DHT22;11382;48.086;11.632;2024-03-07T06:17:52;3.80;99.90
22430;DHT22;11382;48.086;11.632;2024-03-07T06:20:21;3.90;99.90
22430;DHT22;11382;48.086;11.632;2024-03-07T06:22:53;3.90;99.90
22430;DHT22;11382;48.086;11.632;2024-03-07T06:25:21;3.90;99.90
22430;DHT22;11382;48.086;11.632;2024-03-07T06:28:01;4.00;99.90
22430;DHT22;11382;48.086;11.632;2024-03-07T06:30:35;4.10;99.90
22430;DHT22;11382;48.086;11.632;2024-03-07T06:33:04;4.10;99.90
22430;DHT22;11382;48.086;11.632;2024-03-07T06:35:33;4.10;99.90
22430;DHT22;11382;48.086;11.632;2024-03-07T06:38:05;4.00;99.90
22430;DHT22;11382;48.086;11.632;2024-03-07T06:40:33;3.90;99.90
22430;DHT22;11382;48.086;11.632;2024-03-07T06:43:01;3.80;99.90
22430;DHT22;11382;48.086;11.632;2024-03-07T06:45:30;3.90;99.90
22430;DHT22;11382;48.086;11.632;2024-03-07T06:47:59;4.00;99.90
22430;DHT22;11382;48.086;11.632;2024-03-07T06:50:27;4.00;99.90
22430;DHT22;11382;48.086;11.632;2024-03-07T06:53:05;4.00;99.90
22430;DHT22;11382;48.086;11.632;2024-03-07T06:55:36;4.00;99.90
22430;DHT22;11382;48.086;11.632;2024-03-07T06:58:05;3.90;99.90
22430;DHT22;11382;48.086;11.632;2024-03-07T07:00:33;3.80;99.90
22430;DHT22;11382;48.086;11.632;2024-03-07T07:03:04;3.90;99.90
22430;DHT22;11382;48.086;11.632;2024-03-07T07:05:33;4.00;99.90
22430;DHT22;11382;48.086;11.632;2024-03-07T07:08:02;4.10;99.90
22430;DHT22;11382;48.086;11.632;2024-03-07T07:10:33;4.10;99.90
22430;DHT22;11382;48.086;11.632;2024-03-07T07:13:01;4.10;99.90
22430;DHT22;11382;48.086;11.632;2024-03-07T07:15:31;4.30;99.90
22430;DHT22;11382;48.086;11.632;2024-03-07T07:17:59;4.30;99.90
22430;DHT22;11382;48.086;11.632;2024-03-07T07:20:29;4.40;99.90
22430;DHT22;11382;48.086;11.632;2024-03-07T07:22:57;4.30;99.90
22430;DHT22;11382;48.086;11.632;2024-03-07T07:25:27;4.40;99.90
22430;DHT22;11382;48.086;11.632;2024-03-07T07:27:57;4.50;99.90
22430;DHT22;11382;48.086;11.632;2024-03-07T07:30:25;4.50;99.90
22430;DHT22;11382;48.086;11.632;2024-03-07T07:32:54;4.50;99.90
22430;DHT22;11382;48.086;11.632;2024-03-07T07:35:22;4.50;99.90
22430;DHT22;11382;48.086;11.632;2024-03-07T07:37:51;4.60;99.90
22430;DHT22;11382;48.086;11.632;2024-03-07T07:40:24;4.70;99.90
22430;DHT22;11382;48.086;11.632;2024-03-07T07:42:54;4.90;99.90
22430;DHT22;11382;48.086;11.632;2024-03-07T07:45:24;4.80;99.90
22430;DHT22;11382;48.086;11.632;2024-03-07T07:47:52;4.90;99.90
22430;DHT22;11382;48.086;11.632;2024-03-07T07:50:23;4.90;99.90
22430;DHT22;11382;48.086;11.632;2024-03-07T07:52:53;4.90;99.90
22430;DHT22;11382;48.086;11.632;2024-03-07T07:55:22;5.10;99.90
22430;DHT22;11382;48.086;11.632;2024-03-07T07:57:53;5.20;99.90
22430;DHT22;11382;48.086;11.632;2024-03-07T08:00:24;5.30;99.90
22430;DHT22;11382;48.086;11.632;2024-03-07T08:02:54;5.30;99.90
22430;DHT22;11382;48.086;11.632;2024-03-07T08:05:24;5.30;99.90
22430;DHT22;11382;48.086;11.632;2024-03-07T08:07:55;5.70;99.90
22430;DHT22;11382;48.086;11.632;2024-03-07T08:10:25;6.00;99.90
22430;DHT22;11382;48.086;11.632;2024-03-07T08:12:55;5.80;99.90
22430;DHT22;11382;48.086;11.632;2024-03-07T08:15:26;5.80;99.90
22430;DHT22;11382;48.086;11.632;2024-03-07T08:17:57;6.10;99.90
22430;DHT22;11382;48.086;11.632;2024-03-07T08:20:27;6.10;99.90
22430;DHT22;11382;48.086;11.632;2024-03-07T08:22:56;6.20;99.90
22430;DHT22;11382;48.086;11.632;2024-03-07T08:25:27;6.30;99.90
22430;DHT22;11382;48.086;11.632;2024-03-07T08:27:57;6.10;99.90
22430;DHT22;11382;48.086;11.632;2024-03-07T08:30:27;6.30;99.90
22430;DHT22;11382;48.086;11.632;2024-03-07T08:32:56;6.20;99.90
22430;DHT22;11382;48.086;11.632;2024-03-07T08:35:25;6.10;99.90
22430;DHT22;11382;48.086;11.632;2024-03-07T08:37:54;5.90;99.90
22430;DHT22;11382;48.086;11.632;2024-03-07T08:40:25;5.80;99.90
22430;DHT22;11382;48.086;11.632;2024-03-07T08:42:55;5.70;99.90
22430;DHT22;11382;48.086;11.632;2024-03-07T08:45:25;5.80;99.90
22430;DHT22;11382;48.086;11.632;2024-03-07T08:47:55;5.80;99.90
22430;DHT22;11382;48.086;11.632;2024-03-07T08:50:27;6.00;99.90
22430;DHT22;11382;48.086;11.632;2024-03-07T08:52:56;6.10;99.90
22430;DHT22;11382;48.086;11.632;2024-03-07T08:55:25;6.00;99.90
22430;DHT22;11382;48.086;11.632;2024-03-07T08:57:53;6.10;99.90
22430;DHT22;11382;48.086;11.632;2024-03-07T09:00:22;6.20;99.90
22430;DHT22;11382;48.086;11.632;2024-03-07T09:02:55;6.70;99.90
22430;DHT22;11382;48.086;11.632;2024-03-07T09:05:27;7.10;99.90
22430;DHT22;11382;48.086;11.632;2024-03-07T09:07:56;7.40;99.90
22430;DHT22;11382;48.086;11.632;2024-03-07T09:10:24;8.10;99.90
22430;DHT22;11382;48.086;11.632;2024-03-07T09:12:53;8.30;99.90
22430;DHT22;11382;48.086;11.632;2024-03-07T09:15:22;7.80;99.90
22430;DHT22;11382;48.086;11.632;2024-03-07T09:17:51;7.80;99.90
22430;DHT22;11382;48.086;11.632;2024-03-07T09:20:22;7.80;99.90
22430;DHT22;11382;48.086;11.632;2024-03-07T09:22:51;7.60;99.90
22430;DHT22;11382;48.086;11.632;2024-03-07T09:25:22;7.40;99.90
22430;DHT22;11382;48.086;11.632;2024-03-07T09:27:51;7.40;99.90
22430;DHT22;11382;48.086;11.632;2024-03-07T09:30:20;7.60;99.90
22430;DHT22;11382;48.086;11.632;2024-03-07T09:32:52;7.30;99.90
22430;DHT22;11382;48.086;11.632;2024-03-07T09:35:23;7.30;99.90
22430;DHT22;11382;48.086;11.632;2024-03-07T09:37:52;7.60;99.90
22430;DHT22;11382;48.086;11.632;2024-03-07T09:40:21;7.40;99.90
22430;DHT22;11382;48.086;11.632;2024-03-07T09:42:52;7.60;99.90
22430;DHT22;11382;48.086;11.632;2024-03-07T09:45:23;7.30;99.90
22430;DHT22;11382;48.086;11.632;2024-03-07T09:47:56;7.10;99.90
22430;DHT22;11382;48.086;11.632;2024-03-07T09:50:29;6.90;99.90
22430;DHT22;11382;48.086;11.632;2024-03-07T09:52:58;7.40;99.90
22430;DHT22;11382;48.086;11.632;2024-03-07T09:55:27;7.50;99.90
22430;DHT22;11382;48.086;11.632;2024-03-07T09:57:58;7.70;99.90
22430;DHT22;11382;48.086;11.632;2024-03-07T10:00:27;7.80;99.90
22430;DHT22;11382;48.086;11.632;2024-03-07T10:02:58;7.90;99.90
22430;DHT22;11382;48.086;11.632;2024-03-07T10:05:28;7.70;99.90
22430;DHT22;11382;48.086;11.632;2024-03-07T10:07:58;8.10;99.90
22430;DHT22;11382;48.086;11.632;2024-03-07T10:10:27;8.50;99.90
22430;DHT22;11382;48.086;11.632;2024-03-07T10:12:57;8.70;99.90
22430;DHT22;11382;48.086;11.632;2024-03-07T10:15:28;8.90;99.90
22430;DHT22;11382;48.086;11.632;2024-03-07T10:17:57;8.90;99.90
22430;DHT22;11382;48.086;11.632;2024-03-07T10:20:26;8.60;99.90
22430;DHT22;11382;48.086;11.632;2024-03-07T10:22:56;8.30;99.90
22430;DHT22;11382;48.086;11.632;2024-03-07T10:25:25;8.50;99.90
22430;DHT22;11382;48.086;11.632;2024-03-07T10:27:56;8.70;99.90
22430;DHT22;11382;48.086;11.632;2024-03-07T10:30:26;8.60;99.90
22430;DHT22;11382;48.086;11.632;2024-03-07T10:32:56;8.60;99.90
22430;DHT22;11382;48.086;11.632;2024-03-07T10:35:26;8.30;99.90
22430;DHT22;11382;48.086;11.632;2024-03-07T10:37:58;7.60;99.90
22430;DHT22;11382;48.086;11.632;2024-03-07T10:40:28;7.60;99.90
22430;DHT22;11382;48.086;11.632;2024-03-07T10:42:58;7.70;99.90
22430;DHT22;11382;48.086;11.632;2024-03-07T10:45:30;7.80;99.90
22430;DHT22;11382;48.086;11.632;2024-03-07T10:48:03;8.10;99.90
22430;DHT22;11382;48.086;11.632;2024-03-07T10:50:42;8.30;99.90
22430;DHT22;11382;48.086;11.632;2024-03-07T10:53:19;8.40;99.90
22430;DHT22;11382;48.086;11.632;2024-03-07T10:55:58;8.40;99.90
22430;DHT22;11382;48.086;11.632;2024-03-07T10:58:36;8.50;99.90
22430;DHT22;11382;48.086;11.632;2024-03-07T11:01:05;8.20;99.90
22430;DHT22;11382;48.086;11.632;2024-03-07T11:03:35;8.10;99.90
22430;DHT22;11382;48.086;11.632;2024-03-07T11:06:03;8.00;99.90
22430;DHT22;11382;48.086;11.632;2024-03-07T11:08:40;8.00;99.90
22430;DHT22;11382;48.086;11.632;2024-03-07T11:11:08;8.10;99.90
22430;DHT22;11382;48.086;11.632;2024-03-07T11:13:38;8.50;99.90
22430;DHT22;11382;48.086;11.632;2024-03-07T11:16:07;8.60;99.90
22430;DHT22;11382;48.086;11.632;2024-03-07T11:18:39;9.20;99.90
22430;DHT22;11382;48.086;11.632;2024-03-07T11:21:40;9.30;99.90
22430;DHT22;11382;48.086;11.632;2024-03-07T11:24:22;9.20;99.90
22430;DHT22;11382;48.086;11.632;2024-03-07T11:26:52;9.50;99.90
22430;DHT22;11382;48.086;11.632;2024-03-07T11:29:40;10.70;99.90
22430;DHT22;11382;48.086;11.632;2024-03-07T11:32:10;12.60;99.90
22430;DHT22;11382;48.086;11.632;2024-03-07T11:34:41;13.90;99.90
22430;DHT22;11382;48.086;11.632;2024-03-07T11:37:09;14.40;99.90
22430;DHT22;11382;48.086;11.632;2024-03-07T11:39:46;14.10;99.90
22430;DHT22;11382;48.086;11.632;2024-03-07T11:42:25;13.50;99.90
22430;DHT22;11382;48.086;11.632;2024-03-07T11:44:55;11.70;99.90
22430;DHT22;11382;48.086;11.632;2024-03-07T11:47:24;10.40;99.90
22430;DHT22;11382;48.086;11.632;2024-03-07T11:49:56;9.50;99.90
22430;DHT22;11382;48.086;11.632;2024-03-07T11:52:25;9.30;99.90
22430;DHT22;11382;48.086;11.632;2024-03-07T11:54:56;9.70;99.90
22430;DHT22;11382;48.086;11.632;2024-03-07T11:57:31;9.90;99.90
22430;DHT22;11382;48.086;11.632;2024-03-07T12:00:01;9.70;99.90
22430;DHT22;11382;48.086;11.632;2024-03-07T12:02:38;9.80;99.90
22430;DHT22;11382;48.086;11.632;2024-03-07T12:05:08;9.90;99.90
22430;DHT22;11382;48.086;11.632;2024-03-07T12:07:36;10.10;99.90
22430;DHT22;11382;48.086;11.632;2024-03-07T12:10:07;10.90;99.90
22430;DHT22;11382;48.086;11.632;2024-03-07T12:12:35;10.80;99.90
22430;DHT22;11382;48.086;11.632;2024-03-07T12:15:06;11.90;99.90
22430;DHT22;11382;48.086;11.632;2024-03-07T12:17:42;12.70;99.90
22430;DHT22;11382;48.086;11.632;2024-03-07T12:20:12;13.60;99.90
22430;DHT22;11382;48.086;11.632;2024-03-07T12:22:56;13.40;99.90
22430;DHT22;11382;48.086;11.632;2024-03-07T12:25:25;12.60;99.90
22430;DHT22;11382;48.086;11.632;2024-03-07T12:28:02;11.50;99.90
22430;DHT22;11382;48.086;11.632;2024-03-07T12:30:34;10.50;99.90
22430;DHT22;11382;48.086;11.632;2024-03-07T12:33:03;10.00;99.90
22430;DHT22;11382;48.086;11.632;2024-03-07T12:35:34;9.00;99.90
22430;DHT22;11382;48.086;11.632;2024-03-07T12:38:03;8.90;99.90
22430;DHT22;11382;48.086;11.632;2024-03-07T12:40:32;8.70;99.90
22430;DHT22;11382;48.086;11.632;2024-03-07T12:43:01;8.00;99.90
22430;DHT22;11382;48.086;11.632;2024-03-07T12:45:30;8.00;99.90
22430;DHT22;11382;48.086;11.632;2024-03-07T12:48:00;8.20;99.90
22430;DHT22;11382;48.086;11.632;2024-03-07T12:50:32;8.20;99.90
22430;DHT22;11382;48.086;11.632;2024-03-07T12:53:03;8.10;99.90
22430;DHT22;11382;48.086;11.632;2024-03-07T12:55:34;8.10;99.90
22430;DHT22;11382;48.086;11.632;2024-03-07T12:58:03;7.80;99.90
22430;DHT22;11382;48.086;11.632;2024-03-07T13:00:31;7.90;99.90
22430;DHT22;11382;48.086;11.632;2024-03-07T13:02:59;7.60;99.90
22430;DHT22;11382;48.086;11.632;2024-03-07T13:05:27;7.70;99.90
22430;DHT22;11382;48.086;11.632;2024-03-07T13:07:55;7.80;99.90
22430;DHT22;11382;48.086;11.632;2024-03-07T13:10:23;8.00;99.90
22430;DHT22;11382;48.086;11.632;2024-03-07T13:12:53;8.40;99.90
22430;DHT22;11382;48.086;11.632;2024-03-07T13:15:21;8.20;99.90
22430;DHT22;11382;48.086;11.632;2024-03-07T13:17:51;8.30;99.90
22430;DHT22;11382;48.086;11.632;2024-03-07T13:20:21;8.30;99.90
22430;DHT22;11382;48.086;11.632;2024-03-07T13:22:53;8.30;99.90
22430;DHT22;11382;48.086;11.632;2024-03-07T13:25:24;8.40;99.90
22430;DHT22;11382;48.086;11.632;2024-03-07T13:27:56;8.70;99.90
22430;DHT22;11382;48.086;11.632;2024-03-07T13:30:26;9.10;99.90
22430;DHT22;11382;48.086;11.632;2024-03-07T13:32:55;8.50;99.90
22430;DHT22;11382;48.086;11.632;2024-03-07T13:35:24;8.70;99.90
22430;DHT22;11382;48.086;11.632;2024-03-07T13:37:53;8.40;99.90
22430;DHT22;11382;48.086;11.632;2024-03-07T13:40:23;8.50;99.90
22430;DHT22;11382;48.086;11.632;2024-03-07T13:42:55;8.60;99.90
22430;DHT22;11382;48.086;11.632;2024-03-07T13:45:26;8.50;99.90
22430;DHT22;11382;48.086;11.632;2024-03-07T13:47:54;8.80;99.90
22430;DHT22;11382;48.086;11.632;2024-03-07T13:50:26;8.90;99.90
22430;DHT22;11382;48.086;11.632;2024-03-07T13:53:17;9.20;99.90
22430;DHT22;11382;48.086;11.632;2024-03-07T13:56:19;9.20;99.90
22430;DHT22;11382;48.086;11.632;2024-03-07T13:59:10;9.10;99.90
22430;DHT22;11382;48.086;11.632;2024-03-07T14:01:55;8.90;99.90
22430;DHT22;11382;48.086;11.632;2024-03-07T14:07:45;8.10;99.90
22430;DHT22;11382;48.086;11.632;2024-03-07T14:10:47;8.00;99.90
22430;DHT22;11382;48.086;11.632;2024-03-07T14:13:35;7.80;99.90
22430;DHT22;11382;48.086;11.632;2024-03-07T14:16:39;7.60;99.90
22430;DHT22;11382;48.086;11.632;2024-03-07T14:19:46;7.50;99.90
22430;DHT22;11382;48.086;11.632;2024-03-07T14:22:39;7.20;99.90
22430;DHT22;11382;48.086;11.632;2024-03-07T14:25:32;7.30;99.90
22430;DHT22;11382;48.086;11.632;2024-03-07T14:28:16;7.50;99.90
22430;DHT22;11382;48.086;11.632;2024-03-07T14:30:50;7.50;99.90
22430;DHT22;11382;48.086;11.632;2024-03-07T14:33:28;7.90;99.90
22430;DHT22;11382;48.086;11.632;2024-03-07T14:36:02;8.10;99.90
22430;DHT22;11382;48.086;11.632;2024-03-07T14:38:45;8.00;99.90
22430;DHT22;11382;48.086;11.632;2024-03-07T14:41:18;7.60;99.90
22430;DHT22;11382;48.086;11.632;2024-03-07T14:43:50;7.30;99.90
22430;DHT22;11382;48.086;11.632;2024-03-07T14:46:18;7.20;99.90
22430;DHT22;11382;48.086;11.632;2024-03-07T14:48:48;6.80;99.90
22430;DHT22;11382;48.086;11.632;2024-03-07T14:51:16;6.90;99.90
22430;DHT22;11382;48.086;11.632;2024-03-07T14:53:44;6.80;99.90
22430;DHT22;11382;48.086;11.632;2024-03-07T14:56:12;6.70;99.90
22430;DHT22;11382;48.086;11.632;2024-03-07T14:58:40;6.50;99.90
22430;DHT22;11382;48.086;11.632;2024-03-07T15:01:09;6.40;99.90
22430;DHT22;11382;48.086;11.632;2024-03-07T15:03:39;6.30;99.90
22430;DHT22;11382;48.086;11.632;2024-03-07T15:06:11;6.40;99.90
22430;DHT22;11382;48.086;11.632;2024-03-07T15:08:41;6.50;99.90
22430;DHT22;11382;48.086;11.632;2024-03-07T15:11:14;6.60;99.90
22430;DHT22;11382;48.086;11.632;2024-03-07T15:13:45;6.40;99.90
22430;DHT22;11382;48.086;11.632;2024-03-07T15:16:14;6.50;99.90
22430;DHT22;11382;48.086;11.632;2024-03-07T15:18:59;6.50;99.90
22430;DHT22;11382;48.086;11.632;2024-03-07T15:21:28;6.60;99.90
22430;DHT22;11382;48.086;11.632;2024-03-07T15:23:57;6.50;99.90
22430;DHT22;11382;48.086;11.632;2024-03-07T15:26:25;6.60;99.90
22430;DHT22;11382;48.086;11.632;2024-03-07T15:28:54;6.60;99.90
22430;DHT22;11382;48.086;11.632;2024-03-07T15:31:22;6.70;99.90
22430;DHT22;11382;48.086;11.632;2024-03-07T15:33:50;6.70;99.90
22430;DHT22;11382;48.086;11.632;2024-03-07T15:36:19;6.70;99.90
22430;DHT22;11382;48.086;11.632;2024-03-07T15:38:50;6.70;99.90
22430;DHT22;11382;48.086;11.632;2024-03-07T15:41:18;6.50;99.90
22430;DHT22;11382;48.086;11.632;2024-03-07T15:43:46;6.50;99.90
22430;DHT22;11382;48.086;11.632;2024-03-07T15:46:15;6.70;99.90
22430;DHT22;11382;48.086;11.632;2024-03-07T15:48:45;6.60;99.90
22430;DHT22;11382;48.086;11.632;2024-03-07T15:51:16;6.40;99.90
22430;DHT22;11382;48.086;11.632;2024-03-07T15:53:44;6.30;99.90